Time,TemperatureF,DewpointF,PressureIn,WindDirection,WindDirectionDegrees,WindSpeedMPH,WindSpeedGustMPH,Humidity,HourlyPrecipIn,Conditions,Clouds,dailyrainin,SoftwareType,DateUTC
2013-02-10 00:00:00,21.4,12.2,30.34,NW,304,0.0,2.0,67,0.00,,,0.08,LWC V2.11 B50,2013-02-10 05:00:00,
2013-02-10 00:05:00,21.3,12.1,30.34,WNW,298,2.0,4.0,67,0.00,,,0.00,LWC V2.11 B50,2013-02-10 05:05:00,
2013-02-10 00:10:00,21.2,12.0,30.33,WNW,300,0.0,5.0,67,0.00,,,0.00,LWC V2.11 B50,2013-02-10 05:10:00,
2013-02-10 00:15:00,21.0,11.8,30.34,WNW,300,0.0,1.0,67,0.00,,,0.00,LWC V2.11 B50,2013-02-10 05:15:00,
2013-02-10 00:20:00,20.9,12.0,30.34,NW,306,0.0,1.0,68,0.00,,,0.00,LWC V2.11 B50,2013-02-10 05:20:00,
2013-02-10 00:25:00,20.8,11.9,30.34,NW,306,0.0,0.0,68,0.00,,,0.00,LWC V2.11 B50,2013-02-10 05:25:00,
2013-02-10 00:30:00,20.7,11.8,30.34,NW,306,0.0,0.0,68,0.00,,,0.00,LWC V2.11 B50,2013-02-10 05:30:00,
2013-02-10 00:35:00,20.6,11.7,30.34,NW,306,0.0,0.0,68,0.00,,,0.00,LWC V2.11 B50,2013-02-10 05:35:00,
2013-02-10 00:40:00,20.4,11.5,30.35,NW,306,0.0,0.0,68,0.00,,,0.00,LWC V2.11 B50,2013-02-10 05:40:00,
2013-02-10 00:45:00,20.4,11.5,30.34,NW,306,0.0,0.0,68,0.00,,,0.00,LWC V2.11 B50,2013-02-10 05:45:00,
2013-02-10 00:50:00,20.3,11.5,30.34,NW,306,0.0,0.0,68,0.00,,,0.00,LWC V2.11 B50,2013-02-10 05:50:00,
2013-02-10 00:55:00,20.1,11.6,30.35,NW,306,0.0,0.0,69,0.00,,,0.00,LWC V2.11 B50,2013-02-10 05:55:00,
2013-02-10 01:00:00,19.9,11.4,30.35,NW,306,0.0,0.0,69,0.00,,,0.00,LWC V2.11 B50,2013-02-10 06:00:00,
2013-02-10 01:05:00,19.9,11.4,30.35,NW,306,0.0,0.0,69,0.00,,,0.00,LWC V2.11 B50,2013-02-10 06:05:00,
2013-02-10 01:10:00,19.7,11.2,30.35,NW,306,0.0,0.0,69,0.00,,,0.00,LWC V2.11 B50,2013-02-10 06:10:00,
2013-02-10 01:15:00,19.5,11.3,30.35,NW,306,0.0,0.0,70,0.00,,,0.00,LWC V2.11 B50,2013-02-10 06:15:00,
2013-02-10 01:20:00,19.4,11.6,30.35,WNW,303,0.0,0.0,71,0.00,,,0.00,LWC V2.11 B50,2013-02-10 06:20:00,
2013-02-10 01:21:00,19.3,11.5,30.35,WNW,303,0.0,0.0,71,0.00,,,0.00,LWC V2.11 B50,2013-02-10 06:21:00,
2013-02-10 01:26:00,19.3,11.5,30.35,WNW,299,0.0,5.0,71,0.00,,,0.00,LWC V2.11 B50,2013-02-10 06:26:00,
2013-02-10 01:31:00,19.4,11.6,30.35,WNW,298,0.0,3.0,71,0.00,,,0.00,LWC V2.11 B50,2013-02-10 06:31:00,
2013-02-10 01:36:00,19.4,11.6,30.35,WNW,293,0.0,2.0,71,0.00,,,0.00,LWC V2.11 B50,2013-02-10 06:36:00,
2013-02-10 01:41:00,19.5,11.7,30.35,WNW,292,0.0,3.0,71,0.00,,,0.00,LWC V2.11 B50,2013-02-10 06:41:00,
2013-02-10 01:46:00,19.5,11.7,30.36,WNW,298,2.0,6.0,71,0.00,,,0.00,LWC V2.11 B50,2013-02-10 06:46:00,
2013-02-10 01:51:00,19.5,11.7,30.36,WNW,288,2.0,4.0,71,0.00,,,0.00,LWC V2.11 B50,2013-02-10 06:51:00,
2013-02-10 01:56:00,19.6,11.8,30.36,WNW,302,1.0,9.0,71,0.00,,,0.00,LWC V2.11 B50,2013-02-10 06:56:00,
2013-02-10 02:01:00,19.6,11.8,30.36,WNW,300,5.0,8.0,71,0.00,,,0.00,LWC V2.11 B50,2013-02-10 07:01:00,
2013-02-10 02:06:00,19.6,11.8,30.36,NW,307,0.0,0.0,71,0.00,,,0.00,LWC V2.11 B50,2013-02-10 07:06:00,
2013-02-10 02:11:00,19.5,11.7,30.36,WNW,292,0.0,0.0,71,0.00,,,0.00,LWC V2.11 B50,2013-02-10 07:11:00,
2013-02-10 02:16:00,19.3,11.5,30.36,WNW,292,3.0,5.0,71,0.00,,,0.00,LWC V2.11 B50,2013-02-10 07:16:00,
2013-02-10 02:21:00,19.3,11.8,30.36,WNW,289,0.0,3.0,72,0.00,,,0.00,LWC V2.11 B50,2013-02-10 07:21:00,
2013-02-10 02:26:00,19.2,11.7,30.36,WNW,289,0.0,0.0,72,0.00,,,0.00,LWC V2.11 B50,2013-02-10 07:26:00,
2013-02-10 02:31:00,19.1,11.6,30.36,WNW,289,0.0,0.0,72,0.00,,,0.00,LWC V2.11 B50,2013-02-10 07:31:00,
2013-02-10 02:36:00,18.9,11.4,30.35,WNW,288,0.0,0.0,72,0.00,,,0.00,LWC V2.11 B50,2013-02-10 07:36:00,
2013-02-10 02:41:00,18.7,11.2,30.36,WNW,288,0.0,0.0,72,0.00,,,0.00,LWC V2.11 B50,2013-02-10 07:41:00,
2013-02-10 02:46:00,18.6,11.4,30.36,WNW,289,0.0,0.0,73,0.00,,,0.00,LWC V2.11 B50,2013-02-10 07:46:00,
2013-02-10 02:51:00,18.6,11.4,30.36,WNW,289,0.0,0.0,73,0.00,,,0.00,LWC V2.11 B50,2013-02-10 07:51:00,
2013-02-10 02:56:00,18.6,11.4,30.36,WNW,290,0.0,0.0,73,0.00,,,0.00,LWC V2.11 B50,2013-02-10 07:56:00,
2013-02-10 03:01:00,18.5,11.3,30.36,WNW,290,0.0,0.0,73,0.00,,,0.00,LWC V2.11 B50,2013-02-10 08:01:00,
2013-02-10 03:06:00,18.5,11.3,30.36,WNW,290,0.0,0.0,73,0.00,,,0.00,LWC V2.11 B50,2013-02-10 08:06:00,
2013-02-10 03:11:00,18.4,11.2,30.36,WNW,290,0.0,0.0,73,0.00,,,0.00,LWC V2.11 B50,2013-02-10 08:11:00,
2013-02-10 03:16:00,18.4,11.5,30.36,WNW,290,0.0,0.0,74,0.00,,,0.00,LWC V2.11 B50,2013-02-10 08:16:00,
2013-02-10 03:21:00,18.2,11.3,30.36,WNW,290,0.0,0.0,74,0.00,,,0.00,LWC V2.11 B50,2013-02-10 08:21:00,
2013-02-10 03:26:00,18.1,11.2,30.36,WNW,290,0.0,0.0,74,0.00,,,0.00,LWC V2.11 B50,2013-02-10 08:26:00,
2013-02-10 03:31:00,17.9,11.0,30.37,WNW,290,0.0,0.0,74,0.00,,,0.00,LWC V2.11 B50,2013-02-10 08:31:00,
2013-02-10 03:36:00,18.0,11.4,30.37,WNW,286,0.0,2.0,75,0.00,,,0.00,LWC V2.11 B50,2013-02-10 08:36:00,
2013-02-10 03:41:00,18.1,11.5,30.37,West,281,0.0,1.0,75,0.00,,,0.00,LWC V2.11 B50,2013-02-10 08:41:00,
2013-02-10 03:46:00,18.1,11.5,30.37,WNW,282,0.0,2.0,75,0.00,,,0.00,LWC V2.11 B50,2013-02-10 08:46:00,
2013-02-10 03:51:00,18.0,11.4,30.37,WNW,283,0.0,0.0,75,0.00,,,0.00,LWC V2.11 B50,2013-02-10 08:51:00,
2013-02-10 03:56:00,17.8,11.2,30.37,WNW,283,0.0,0.0,75,0.00,,,0.00,LWC V2.11 B50,2013-02-10 08:56:00,
2013-02-10 04:01:00,17.6,11.1,30.36,WNW,284,0.0,0.0,75,0.00,,,0.00,LWC V2.11 B50,2013-02-10 09:01:00,
2013-02-10 04:06:00,17.7,11.4,30.36,WNW,300,1.0,2.0,76,0.00,,,0.00,LWC V2.11 B50,2013-02-10 09:06:00,
2013-02-10 04:11:00,17.8,11.5,30.36,WNW,300,0.0,2.0,76,0.00,,,0.00,LWC V2.11 B50,2013-02-10 09:11:00,
2013-02-10 04:16:00,17.8,11.5,30.36,WNW,300,0.0,0.0,76,0.00,,,0.00,LWC V2.11 B50,2013-02-10 09:16:00,
2013-02-10 04:21:00,17.8,11.5,30.36,WNW,301,1.0,1.0,76,0.00,,,0.00,LWC V2.11 B50,2013-02-10 09:21:00,
2013-02-10 04:26:00,17.9,11.6,30.36,NW,304,0.0,1.0,76,0.00,,,0.00,LWC V2.11 B50,2013-02-10 09:26:00,
2013-02-10 04:31:00,18.0,11.7,30.36,WNW,300,0.0,0.0,76,0.00,,,0.00,LWC V2.11 B50,2013-02-10 09:31:00,
2013-02-10 04:36:00,18.0,11.7,30.36,NW,304,0.0,0.0,76,0.00,,,0.00,LWC V2.11 B50,2013-02-10 09:36:00,
2013-02-10 04:41:00,17.9,11.3,30.36,NW,305,0.0,0.0,75,0.00,,,0.00,LWC V2.11 B50,2013-02-10 09:41:00,
2013-02-10 04:46:00,17.7,11.1,30.35,NW,305,0.0,0.0,75,0.00,,,0.00,LWC V2.11 B50,2013-02-10 09:46:00,
2013-02-10 04:51:00,17.4,11.2,30.35,NW,304,0.0,0.0,76,0.00,,,0.00,LWC V2.11 B50,2013-02-10 09:51:00,
2013-02-10 04:56:00,17.3,11.1,30.35,NW,305,0.0,0.0,76,0.00,,,0.00,LWC V2.11 B50,2013-02-10 09:56:00,
2013-02-10 05:01:00,17.1,11.2,30.35,NW,304,0.0,0.0,77,0.00,,,0.00,LWC V2.11 B50,2013-02-10 10:01:00,
2013-02-10 05:06:00,16.9,11.2,30.35,WNW,284,3.0,5.0,78,0.00,,,0.00,LWC V2.11 B50,2013-02-10 10:06:00,
2013-02-10 05:11:00,17.1,11.4,30.35,WNW,287,0.0,1.0,78,0.00,,,0.00,LWC V2.11 B50,2013-02-10 10:11:00,
2013-02-10 05:16:00,17.2,11.5,30.36,WNW,287,0.0,0.0,78,0.00,,,0.00,LWC V2.11 B50,2013-02-10 10:16:00,
2013-02-10 05:21:00,17.2,11.5,30.36,WNW,287,0.0,0.0,78,0.00,,,0.00,LWC V2.11 B50,2013-02-10 10:21:00,
2013-02-10 05:26:00,17.3,11.6,30.36,WNW,287,0.0,0.0,78,0.00,,,0.00,LWC V2.11 B50,2013-02-10 10:26:00,
2013-02-10 05:31:00,17.5,11.8,30.36,WNW,298,0.0,6.0,78,0.00,,,0.00,LWC V2.11 B50,2013-02-10 10:31:00,
2013-02-10 05:36:00,17.7,12.0,30.36,WNW,290,0.0,6.0,78,0.00,,,0.00,LWC V2.11 B50,2013-02-10 10:36:00,
2013-02-10 05:41:00,17.9,11.9,30.36,WNW,294,3.0,7.0,77,0.00,,,0.00,LWC V2.11 B50,2013-02-10 10:41:00,
2013-02-10 05:46:00,18.0,12.0,30.36,West,275,4.0,4.0,77,0.00,,,0.00,LWC V2.11 B50,2013-02-10 10:46:00,
2013-02-10 05:51:00,18.0,12.0,30.36,WNW,290,0.0,5.0,77,0.00,,,0.00,LWC V2.11 B50,2013-02-10 10:51:00,
2013-02-10 05:56:00,17.9,11.9,30.37,West,280,1.0,6.0,77,0.00,,,0.00,LWC V2.11 B50,2013-02-10 10:56:00,
2013-02-10 06:01:00,17.8,11.8,30.37,WNW,289,0.0,1.0,77,0.00,,,0.00,LWC V2.11 B50,2013-02-10 11:01:00,
2013-02-10 06:06:00,17.7,11.7,30.37,WNW,298,0.0,5.0,77,0.00,,,0.00,LWC V2.11 B50,2013-02-10 11:06:00,
2013-02-10 06:11:00,17.8,11.8,30.37,NW,315,4.0,5.0,77,0.00,,,0.00,LWC V2.11 B50,2013-02-10 11:11:00,
2013-02-10 06:16:00,17.8,11.8,30.37,WNW,300,0.0,1.0,77,0.00,,,0.00,LWC V2.11 B50,2013-02-10 11:16:00,
2013-02-10 06:21:00,17.7,11.7,30.37,WNW,300,0.0,0.0,77,0.00,,,0.00,LWC V2.11 B50,2013-02-10 11:21:00,
2013-02-10 06:26:00,17.7,11.7,30.37,WNW,300,0.0,0.0,77,0.00,,,0.00,LWC V2.11 B50,2013-02-10 11:26:00,
2013-02-10 06:31:00,17.5,11.5,30.37,WNW,300,0.0,2.0,77,0.00,,,0.00,LWC V2.11 B50,2013-02-10 11:31:00,
2013-02-10 06:36:00,17.4,11.7,30.38,WNW,300,0.0,0.0,78,0.00,,,0.00,LWC V2.11 B50,2013-02-10 11:36:00,
2013-02-10 06:41:00,17.3,11.4,30.38,WNW,300,0.0,0.0,77,0.00,,,0.00,LWC V2.11 B50,2013-02-10 11:41:00,
2013-02-10 06:46:00,17.1,11.2,30.38,WNW,300,0.0,0.0,77,0.00,,,0.00,LWC V2.11 B50,2013-02-10 11:46:00,
2013-02-10 06:51:00,16.8,10.9,30.38,WNW,300,0.0,0.0,77,0.00,,,0.00,LWC V2.11 B50,2013-02-10 11:51:00,
2013-02-10 06:56:00,16.6,10.7,30.39,WNW,300,0.0,0.0,77,0.00,,,0.00,LWC V2.11 B50,2013-02-10 11:56:00,
2013-02-10 07:01:00,16.2,10.6,30.39,WNW,300,0.0,0.0,78,0.00,,,0.00,LWC V2.11 B50,2013-02-10 12:01:00,
2013-02-10 07:06:00,15.9,10.3,30.40,WNW,300,0.0,0.0,78,0.00,,,0.00,LWC V2.11 B50,2013-02-10 12:06:00,
2013-02-10 07:11:00,15.8,10.5,30.40,WNW,300,0.0,0.0,79,0.00,,,0.00,LWC V2.11 B50,2013-02-10 12:11:00,
2013-02-10 07:16:00,15.6,10.3,30.40,WNW,300,0.0,0.0,79,0.00,,,0.00,LWC V2.11 B50,2013-02-10 12:16:00,
2013-02-10 07:21:00,15.5,10.2,30.41,WNW,300,0.0,0.0,79,0.00,,,0.00,LWC V2.11 B50,2013-02-10 12:21:00,
2013-02-10 07:26:00,15.5,10.2,30.41,WNW,300,0.0,0.0,79,0.00,,,0.00,LWC V2.11 B50,2013-02-10 12:26:00,
2013-02-10 07:31:00,15.6,10.6,30.41,WNW,300,0.0,0.0,80,0.00,,,0.00,LWC V2.11 B50,2013-02-10 12:31:00,
2013-02-10 07:36:00,15.9,10.8,30.41,WNW,300,0.0,0.0,80,0.00,,,0.00,LWC V2.11 B50,2013-02-10 12:36:00,
2013-02-10 07:41:00,16.1,11.0,30.41,WNW,300,0.0,0.0,80,0.00,,,0.00,LWC V2.11 B50,2013-02-10 12:41:00,
2013-02-10 07:46:00,16.3,11.2,30.42,WNW,300,0.0,0.0,80,0.00,,,0.00,LWC V2.11 B50,2013-02-10 12:46:00,
2013-02-10 07:51:00,16.7,11.9,30.42,WNW,300,0.0,0.0,81,0.00,,,0.00,LWC V2.11 B50,2013-02-10 12:51:00,
2013-02-10 07:56:00,17.3,12.5,30.42,WNW,300,0.0,0.0,81,0.00,,,0.00,LWC V2.11 B50,2013-02-10 12:56:00,
2013-02-10 08:01:00,18.0,12.9,30.43,WNW,300,0.0,0.0,80,0.00,,,0.00,LWC V2.11 B50,2013-02-10 13:01:00,
2013-02-10 08:06:00,18.7,13.0,30.43,WNW,300,0.0,0.0,78,0.00,,,0.00,LWC V2.11 B50,2013-02-10 13:06:00,
2013-02-10 08:11:00,19.2,13.2,30.42,WNW,300,0.0,0.0,77,0.00,,,0.00,LWC V2.11 B50,2013-02-10 13:11:00,
2013-02-10 08:16:00,19.6,13.3,30.42,WNW,300,2.0,2.0,76,0.00,,,0.00,LWC V2.11 B50,2013-02-10 13:16:00,
2013-02-10 08:21:00,20.0,13.4,30.43,WNW,300,0.0,0.0,75,0.00,,,0.00,LWC V2.11 B50,2013-02-10 13:21:00,
2013-02-10 08:26:00,20.3,13.4,30.43,WNW,300,0.0,0.0,74,0.00,,,0.00,LWC V2.11 B50,2013-02-10 13:26:00,
2013-02-10 08:31:00,20.6,13.0,30.43,WNW,301,0.0,0.0,72,0.00,,,0.00,LWC V2.11 B50,2013-02-10 13:31:00,
2013-02-10 08:36:00,20.7,13.1,30.43,WNW,300,0.0,3.0,72,0.00,,,0.00,LWC V2.11 B50,2013-02-10 13:36:00,
2013-02-10 08:41:00,21.0,13.4,30.44,WNW,301,0.0,0.0,72,0.00,,,0.00,LWC V2.11 B50,2013-02-10 13:41:00,
2013-02-10 08:46:00,21.2,13.3,30.43,WNW,292,0.0,2.0,71,0.00,,,0.00,LWC V2.11 B50,2013-02-10 13:46:00,
2013-02-10 08:51:00,21.5,13.6,30.43,WNW,291,0.0,1.0,71,0.00,,,0.00,LWC V2.11 B50,2013-02-10 13:51:00,
2013-02-10 08:56:00,21.8,13.5,30.44,WNW,291,0.0,0.0,70,0.00,,,0.00,LWC V2.11 B50,2013-02-10 13:56:00,
2013-02-10 09:01:00,22.1,13.5,30.44,WNW,298,0.0,1.0,69,0.00,,,0.00,LWC V2.11 B50,2013-02-10 14:01:00,
2013-02-10 09:06:00,22.3,13.7,30.44,WNW,287,0.0,0.0,69,0.00,,,0.00,LWC V2.11 B50,2013-02-10 14:06:00,
2013-02-10 09:11:00,22.8,14.2,30.44,WNW,287,0.0,0.0,69,0.00,,,0.00,LWC V2.11 B50,2013-02-10 14:11:00,
2013-02-10 09:16:00,23.1,14.1,30.44,WNW,288,0.0,0.0,68,0.00,,,0.00,LWC V2.11 B50,2013-02-10 14:16:00,
2013-02-10 09:21:00,23.4,14.8,30.44,WNW,290,0.0,0.0,69,0.00,,,0.00,LWC V2.11 B50,2013-02-10 14:21:00,
2013-02-10 09:26:00,23.9,14.2,30.44,WNW,297,0.0,1.0,66,0.00,,,0.00,LWC V2.11 B50,2013-02-10 14:26:00,
2013-02-10 09:31:00,24.3,14.6,30.45,WNW,298,0.0,0.0,66,0.00,,,0.00,LWC V2.11 B50,2013-02-10 14:31:00,
2013-02-10 09:36:00,24.5,14.4,30.44,WNW,298,0.0,0.0,65,0.00,,,0.00,LWC V2.11 B50,2013-02-10 14:36:00,
2013-02-10 09:41:00,24.6,14.5,30.44,WNW,298,0.0,0.0,65,0.00,,,0.00,LWC V2.11 B50,2013-02-10 14:41:00,
2013-02-10 09:46:00,25.1,15.0,30.44,WNW,299,0.0,0.0,65,0.00,,,0.00,LWC V2.11 B50,2013-02-10 14:46:00,
2013-02-10 09:51:00,25.1,14.3,30.44,WNW,294,0.0,0.0,63,0.00,,,0.00,LWC V2.11 B50,2013-02-10 14:51:00,
2013-02-10 09:56:00,26.0,15.9,30.44,WNW,294,0.0,0.0,65,0.00,,,0.00,LWC V2.11 B50,2013-02-10 14:56:00,
2013-02-10 10:01:00,26.5,14.9,30.44,WNW,296,0.0,0.0,61,0.00,,,0.00,LWC V2.11 B50,2013-02-10 15:01:00,
2013-02-10 10:06:00,26.2,14.6,30.44,WNW,295,0.0,0.0,61,0.00,,,0.00,LWC V2.11 B50,2013-02-10 15:06:00,
2013-02-10 10:11:00,26.5,14.9,30.44,WNW,296,0.0,0.0,61,0.00,,,0.00,LWC V2.11 B50,2013-02-10 15:11:00,
2013-02-10 10:16:00,27.1,16.2,30.44,WNW,296,0.0,0.0,63,0.00,,,0.00,LWC V2.11 B50,2013-02-10 15:16:00,
2013-02-10 10:21:00,28.4,16.7,30.45,WNW,296,0.0,0.0,61,0.00,,,0.00,LWC V2.11 B50,2013-02-10 15:21:00,
2013-02-10 10:26:00,28.8,15.5,30.45,WNW,295,0.0,0.0,57,0.00,,,0.00,LWC V2.11 B50,2013-02-10 15:26:00,
2013-02-10 10:31:00,29.0,15.3,30.45,WNW,295,0.0,0.0,56,0.00,,,0.01,LWC V2.11 B50,2013-02-10 15:31:00,
2013-02-10 10:36:00,29.4,15.3,30.45,WNW,296,0.0,0.0,55,0.00,,,0.01,LWC V2.11 B50,2013-02-10 15:36:00,
2013-02-10 10:41:00,29.8,16.0,30.45,WNW,296,0.0,0.0,56,0.00,,,0.01,LWC V2.11 B50,2013-02-10 15:41:00,
2013-02-10 10:46:00,30.1,15.5,30.44,SW,217,0.0,0.0,54,0.00,,,0.01,LWC V2.11 B50,2013-02-10 15:46:00,
2013-02-10 10:51:00,30.2,15.6,30.45,SW,217,0.0,0.0,54,0.00,,,0.01,LWC V2.11 B50,2013-02-10 15:51:00,
2013-02-10 10:56:00,30.4,15.3,30.44,SW,217,0.0,0.0,53,0.00,,,0.01,LWC V2.11 B50,2013-02-10 15:56:00,
2013-02-10 11:01:00,31.0,16.3,30.45,SW,217,0.0,0.0,54,0.00,,,0.01,LWC V2.11 B50,2013-02-10 16:01:00,
2013-02-10 11:06:00,31.5,15.5,30.44,SW,225,0.0,0.0,51,0.00,,,0.01,LWC V2.11 B50,2013-02-10 16:06:00,
2013-02-10 11:11:00,31.5,15.5,30.44,SW,226,0.0,0.0,51,0.00,,,0.01,LWC V2.11 B50,2013-02-10 16:11:00,
2013-02-10 11:16:00,31.7,17.0,30.44,SW,226,0.0,0.0,54,0.00,,,0.01,LWC V2.11 B50,2013-02-10 16:16:00,
2013-02-10 11:21:00,32.5,17.3,30.43,SW,218,0.0,0.0,53,0.00,,,0.01,LWC V2.11 B50,2013-02-10 16:21:00,
2013-02-10 11:26:00,33.0,17.3,30.43,SW,219,0.0,0.0,52,0.00,,,0.01,LWC V2.11 B50,2013-02-10 16:26:00,
2013-02-10 11:30:00,33.5,18.2,30.43,SW,219,0.0,0.0,53,0.00,,,0.01,LWC V2.11 B50,2013-02-10 16:30:00,
2013-02-10 11:35:00,33.9,17.2,30.42,SW,219,0.0,0.0,50,0.00,,,0.01,LWC V2.11 B50,2013-02-10 16:35:00,
2013-02-10 11:40:00,33.3,16.2,30.42,SW,221,0.0,0.0,49,0.00,,,0.01,LWC V2.11 B50,2013-02-10 16:40:00,
2013-02-10 11:45:00,33.6,17.9,30.42,NE,52,0.0,0.0,52,0.00,,,0.01,LWC V2.11 B50,2013-02-10 16:45:00,
2013-02-10 11:50:00,34.1,18.3,30.41,ENE,69,0.0,0.0,52,0.00,,,0.01,LWC V2.11 B50,2013-02-10 16:50:00,
2013-02-10 11:55:00,34.5,17.8,30.40,ENE,67,0.0,0.0,50,0.00,,,0.02,LWC V2.11 B50,2013-02-10 16:55:00,
2013-02-10 12:00:00,33.9,15.8,30.40,SE,126,0.0,0.0,47,0.00,,,0.02,LWC V2.11 B50,2013-02-10 17:00:00,
2013-02-10 12:05:00,33.7,17.1,30.40,NE,52,0.0,0.0,50,0.00,,,0.02,LWC V2.11 B50,2013-02-10 17:05:00,
2013-02-10 12:10:00,33.8,16.2,30.39,East,96,0.0,0.0,48,0.00,,,0.02,LWC V2.11 B50,2013-02-10 17:10:00,
2013-02-10 12:15:00,34.3,16.7,30.39,ENE,77,0.0,0.0,48,0.00,,,0.02,LWC V2.11 B50,2013-02-10 17:15:00,
2013-02-10 12:20:00,34.6,16.9,30.39,ENE,78,0.0,0.0,48,0.00,,,0.02,LWC V2.11 B50,2013-02-10 17:20:00,
2013-02-10 12:25:00,34.5,16.4,30.39,ESE,119,0.0,0.0,47,0.00,,,0.02,LWC V2.11 B50,2013-02-10 17:25:00,
2013-02-10 12:30:00,34.3,15.7,30.38,ESE,115,0.0,0.0,46,0.00,,,0.02,LWC V2.11 B50,2013-02-10 17:30:00,
2013-02-10 12:35:00,34.6,15.5,30.38,SSE,167,0.0,0.0,45,0.00,,,0.02,LWC V2.11 B50,2013-02-10 17:35:00,
2013-02-10 12:40:00,34.5,14.9,30.38,SSE,163,0.0,0.0,44,0.00,,,0.02,LWC V2.11 B50,2013-02-10 17:40:00,
2013-02-10 12:45:00,34.4,15.3,30.38,SSW,200,0.0,0.0,45,0.00,,,0.02,LWC V2.11 B50,2013-02-10 17:45:00,
2013-02-10 12:50:00,34.7,16.6,30.37,South,184,0.0,0.0,47,0.00,,,0.02,LWC V2.11 B50,2013-02-10 17:50:00,
2013-02-10 12:55:00,35.2,16.5,30.37,South,190,0.0,0.0,46,0.00,,,0.02,LWC V2.11 B50,2013-02-10 17:55:00,
2013-02-10 13:00:00,35.1,16.4,30.37,South,186,0.0,0.0,46,0.00,,,0.02,LWC V2.11 B50,2013-02-10 18:00:00,
2013-02-10 13:05:00,35.3,17.1,30.37,South,187,0.0,0.0,47,0.00,,,0.02,LWC V2.11 B50,2013-02-10 18:05:00,
2013-02-10 13:10:00,35.5,15.8,30.37,SW,234,0.0,0.0,44,0.00,,,0.02,LWC V2.11 B50,2013-02-10 18:10:00,
2013-02-10 13:15:00,35.9,16.1,30.37,SSW,213,0.0,0.0,44,0.00,,,0.02,LWC V2.11 B50,2013-02-10 18:15:00,
2013-02-10 13:20:00,36.1,16.8,30.38,SSW,209,0.0,0.0,45,0.00,,,0.02,LWC V2.11 B50,2013-02-10 18:20:00,
2013-02-10 13:25:00,36.4,16.6,30.37,SSW,208,0.0,0.0,44,0.00,,,0.02,LWC V2.11 B50,2013-02-10 18:25:00,
2013-02-10 13:30:00,36.6,16.8,30.37,SW,226,0.0,0.0,44,0.00,,,0.02,LWC V2.11 B50,2013-02-10 18:30:00,
2013-02-10 13:35:00,36.3,16.0,30.37,SW,226,0.0,0.0,43,0.00,,,0.02,LWC V2.11 B50,2013-02-10 18:35:00,
2013-02-10 13:40:00,36.4,17.6,30.36,SSW,201,0.0,0.0,46,0.00,,,0.02,LWC V2.11 B50,2013-02-10 18:40:00,
2013-02-10 13:45:00,36.9,17.6,30.36,SSW,198,0.0,0.0,45,0.00,,,0.02,LWC V2.11 B50,2013-02-10 18:45:00,
2013-02-10 13:50:00,37.4,18.5,30.36,SSW,198,0.0,0.0,46,0.00,,,0.02,LWC V2.11 B50,2013-02-10 18:50:00,
2013-02-10 13:55:00,37.6,17.7,30.36,ESE,115,0.0,0.0,44,0.00,,,0.02,LWC V2.11 B50,2013-02-10 18:55:00,
2013-02-10 14:00:00,37.5,18.1,30.36,SSE,167,0.0,0.0,45,0.00,,,0.02,LWC V2.11 B50,2013-02-10 19:00:00,
2013-02-10 14:05:00,37.7,19.3,30.36,SSE,168,0.0,0.0,47,0.00,,,0.02,LWC V2.11 B50,2013-02-10 19:05:00,
2013-02-10 14:10:00,38.0,17.5,30.37,South,171,0.0,0.0,43,0.00,,,0.02,LWC V2.11 B50,2013-02-10 19:10:00,
2013-02-10 14:15:00,38.3,17.8,30.37,South,179,0.0,0.0,43,0.00,,,0.02,LWC V2.11 B50,2013-02-10 19:15:00,
2013-02-10 14:20:00,38.6,18.1,30.35,South,179,0.0,0.0,43,0.00,,,0.02,LWC V2.11 B50,2013-02-10 19:20:00,
2013-02-10 14:25:00,38.8,17.1,30.35,SSW,202,0.0,0.0,41,0.00,,,0.02,LWC V2.11 B50,2013-02-10 19:25:00,
2013-02-10 14:30:00,38.6,16.4,30.35,WNW,296,0.0,0.0,40,0.00,,,0.02,LWC V2.11 B50,2013-02-10 19:30:00,
2013-02-10 14:35:00,38.1,15.9,30.35,WNW,296,0.0,0.0,40,0.00,,,0.02,LWC V2.11 B50,2013-02-10 19:35:00,
2013-02-10 14:40:00,38.3,16.7,30.34,WNW,296,0.0,0.0,41,0.00,,,0.02,LWC V2.11 B50,2013-02-10 19:40:00,
2013-02-10 14:45:00,38.7,17.0,30.34,WNW,296,0.0,0.0,41,0.00,,,0.02,LWC V2.11 B50,2013-02-10 19:45:00,
2013-02-10 14:50:00,38.9,16.7,30.34,WSW,254,0.0,0.0,40,0.00,,,0.02,LWC V2.11 B50,2013-02-10 19:50:00,
2013-02-10 14:55:00,39.1,17.4,30.34,WSW,254,0.0,0.0,41,0.00,,,0.02,LWC V2.11 B50,2013-02-10 19:55:00,
2013-02-10 15:00:00,39.0,16.8,30.34,East,94,0.0,0.0,40,0.00,,,0.02,LWC V2.11 B50,2013-02-10 20:00:00,
2013-02-10 15:05:00,38.9,18.3,30.33,SE,145,0.0,0.0,43,0.00,,,0.02,LWC V2.11 B50,2013-02-10 20:05:00,
2013-02-10 15:10:00,38.9,17.8,30.34,SSE,150,0.0,0.0,42,0.00,,,0.02,LWC V2.11 B50,2013-02-10 20:10:00,
2013-02-10 15:15:00,38.9,18.3,30.34,South,170,0.0,0.0,43,0.00,,,0.02,LWC V2.11 B50,2013-02-10 20:15:00,
2013-02-10 15:20:00,38.9,18.3,30.34,South,175,0.0,0.0,43,0.00,,,0.02,LWC V2.11 B50,2013-02-10 20:20:00,
2013-02-10 15:25:00,38.9,17.2,30.34,NE,46,0.0,0.0,41,0.00,,,0.02,LWC V2.11 B50,2013-02-10 20:25:00,
2013-02-10 15:30:00,39.0,18.4,30.34,East,79,0.0,0.0,43,0.00,,,0.02,LWC V2.11 B50,2013-02-10 20:30:00,
2013-02-10 15:35:00,38.9,18.3,30.33,South,169,0.0,0.0,43,0.00,,,0.02,LWC V2.11 B50,2013-02-10 20:35:00,
2013-02-10 15:40:00,38.7,18.2,30.33,ESE,111,0.0,0.0,43,0.00,,,0.02,LWC V2.11 B50,2013-02-10 20:40:00,
2013-02-10 15:45:00,38.5,18.5,30.33,East,96,0.0,0.0,44,0.00,,,0.02,LWC V2.11 B50,2013-02-10 20:45:00,
2013-02-10 15:50:00,38.4,17.9,30.32,SE,137,0.0,0.0,43,0.00,,,0.02,LWC V2.11 B50,2013-02-10 20:50:00,
2013-02-10 15:55:00,38.2,17.7,30.33,SE,129,0.0,0.0,43,0.00,,,0.02,LWC V2.11 B50,2013-02-10 20:55:00,
2013-02-10 16:00:00,38.0,18.0,30.32,SSE,166,0.0,0.0,44,0.00,,,0.02,LWC V2.11 B50,2013-02-10 21:00:00,
2013-02-10 16:05:00,37.9,17.4,30.32,ESE,105,0.0,0.0,43,0.00,,,0.02,LWC V2.11 B50,2013-02-10 21:05:00,
2013-02-10 16:10:00,37.9,17.4,30.32,ESE,110,0.0,0.0,43,0.00,,,0.02,LWC V2.11 B50,2013-02-10 21:10:00,
2013-02-10 16:15:00,37.7,17.2,30.32,SE,133,0.0,0.0,43,0.00,,,0.02,LWC V2.11 B50,2013-02-10 21:15:00,
2013-02-10 16:20:00,37.6,16.6,30.32,ENE,74,0.0,0.0,42,0.00,,,0.02,LWC V2.11 B50,2013-02-10 21:20:00,
2013-02-10 16:25:00,37.6,16.1,30.32,East,80,0.0,0.0,41,0.00,,,0.02,LWC V2.11 B50,2013-02-10 21:25:00,
2013-02-10 16:30:00,37.5,16.5,30.32,East,80,0.0,0.0,42,0.00,,,0.02,LWC V2.11 B50,2013-02-10 21:30:00,
2013-02-10 16:35:00,37.5,16.5,30.32,South,174,0.0,0.0,42,0.00,,,0.02,LWC V2.11 B50,2013-02-10 21:35:00,
2013-02-10 16:40:00,37.3,15.8,30.33,South,174,0.0,0.0,41,0.00,,,0.02,LWC V2.11 B50,2013-02-10 21:40:00,
2013-02-10 16:45:00,37.3,15.8,30.32,South,174,0.0,0.0,41,0.00,,,0.02,LWC V2.11 B50,2013-02-10 21:45:00,
2013-02-10 16:50:00,37.4,15.9,30.32,South,174,0.0,0.0,41,0.00,,,0.02,LWC V2.11 B50,2013-02-10 21:50:00,
2013-02-10 16:55:00,37.3,15.8,30.32,South,169,0.0,0.0,41,0.00,,,0.02,LWC V2.11 B50,2013-02-10 21:55:00,
2013-02-10 17:00:00,37.1,15.6,30.32,SSE,168,0.0,0.0,41,0.00,,,0.02,LWC V2.11 B50,2013-02-10 22:00:00,
2013-02-10 17:05:00,36.9,15.4,30.32,SSE,168,0.0,0.0,41,0.00,,,0.02,LWC V2.11 B50,2013-02-10 22:05:00,
2013-02-10 17:10:00,36.6,15.7,30.32,SSE,168,0.0,0.0,42,0.00,,,0.02,LWC V2.11 B50,2013-02-10 22:10:00,
2013-02-10 17:15:00,36.2,16.4,30.31,SSE,165,0.0,0.0,44,0.00,,,0.02,LWC V2.11 B50,2013-02-10 22:15:00,
2013-02-10 17:20:00,35.9,16.1,30.32,East,80,0.0,0.0,44,0.00,,,0.02,LWC V2.11 B50,2013-02-10 22:20:00,
2013-02-10 17:25:00,35.6,16.4,30.32,East,80,0.0,0.0,45,0.00,,,0.02,LWC V2.11 B50,2013-02-10 22:25:00,
2013-02-10 17:30:00,35.3,16.1,30.32,East,80,0.0,0.0,45,0.00,,,0.02,LWC V2.11 B50,2013-02-10 22:30:00,
2013-02-10 17:35:00,34.9,16.2,30.33,East,80,0.0,0.0,46,0.00,,,0.02,LWC V2.11 B50,2013-02-10 22:35:00,
2013-02-10 17:40:00,34.6,16.0,30.33,East,80,0.0,0.0,46,0.00,,,0.02,LWC V2.11 B50,2013-02-10 22:40:00,
2013-02-10 17:45:00,34.3,16.2,30.33,East,80,0.0,0.0,47,0.00,,,0.02,LWC V2.11 B50,2013-02-10 22:45:00,
2013-02-10 17:50:00,33.9,16.8,30.33,East,80,0.0,0.0,49,0.00,,,0.02,LWC V2.11 B50,2013-02-10 22:50:00,
2013-02-10 17:55:00,33.4,17.2,30.33,East,80,0.0,0.0,51,0.00,,,0.02,LWC V2.11 B50,2013-02-10 22:55:00,
2013-02-10 18:00:00,33.0,17.3,30.33,East,80,0.0,0.0,52,0.00,,,0.02,LWC V2.11 B50,2013-02-10 23:00:00,
2013-02-10 18:05:00,32.5,17.3,30.34,East,80,0.0,0.0,53,0.00,,,0.02,LWC V2.11 B50,2013-02-10 23:05:00,
2013-02-10 18:10:00,32.2,18.3,30.33,East,80,0.0,0.0,56,0.00,,,0.02,LWC V2.11 B50,2013-02-10 23:10:00,
2013-02-10 18:15:00,31.8,17.5,30.34,East,80,0.0,0.0,55,0.00,,,0.02,LWC V2.11 B50,2013-02-10 23:15:00,
2013-02-10 18:20:00,31.6,17.7,30.33,East,80,0.0,0.0,56,0.00,,,0.02,LWC V2.11 B50,2013-02-10 23:20:00,
2013-02-10 18:25:00,31.5,17.6,30.34,East,80,0.0,0.0,56,0.00,,,0.02,LWC V2.11 B50,2013-02-10 23:25:00,
2013-02-10 18:30:00,31.7,17.8,30.34,East,80,0.0,0.0,56,0.00,,,0.02,LWC V2.11 B50,2013-02-10 23:30:00,
2013-02-10 18:35:00,32.2,18.3,30.33,East,83,0.0,0.0,56,0.00,,,0.02,LWC V2.11 B50,2013-02-10 23:35:00,
2013-02-10 18:40:00,32.6,18.2,30.33,East,83,0.0,0.0,55,0.00,,,0.02,LWC V2.11 B50,2013-02-10 23:40:00,
2013-02-10 18:45:00,33.0,18.2,30.33,East,83,0.0,0.0,54,0.00,,,0.02,LWC V2.11 B50,2013-02-10 23:45:00,
2013-02-10 18:50:00,33.2,18.8,30.33,East,83,0.0,0.0,55,0.00,,,0.02,LWC V2.11 B50,2013-02-10 23:50:00,
2013-02-10 18:55:00,33.2,17.9,30.33,East,83,0.0,0.0,53,0.00,,,0.02,LWC V2.11 B50,2013-02-10 23:55:00,
2013-02-10 19:00:00,33.3,18.0,30.33,East,83,0.0,0.0,53,0.00,,,0.02,LWC V2.11 B50,2013-02-11 00:00:00,
2013-02-10 19:05:00,33.3,18.0,30.32,East,83,0.0,0.0,53,0.00,,,0.02,LWC V2.11 B50,2013-02-11 00:05:00,
2013-02-10 19:10:00,33.1,17.9,30.32,East,83,0.0,0.0,53,0.00,,,0.02,LWC V2.11 B50,2013-02-11 00:10:00,
2013-02-10 19:15:00,33.0,17.8,30.31,East,83,0.0,0.0,53,0.00,,,0.02,LWC V2.11 B50,2013-02-11 00:15:00,
2013-02-10 19:20:00,32.9,17.7,30.31,East,83,0.0,0.0,53,0.00,,,0.02,LWC V2.11 B50,2013-02-11 00:20:00,
2013-02-10 19:25:00,32.8,18.0,30.31,East,83,0.0,0.0,54,0.00,,,0.02,LWC V2.11 B50,2013-02-11 00:25:00,
2013-02-10 19:30:00,32.8,17.6,30.31,East,83,0.0,0.0,53,0.00,,,0.02,LWC V2.11 B50,2013-02-11 00:30:00,
2013-02-10 19:35:00,33.0,17.8,30.31,East,83,0.0,0.0,53,0.00,,,0.02,LWC V2.11 B50,2013-02-11 00:35:00,
2013-02-10 19:40:00,33.2,18.4,30.31,East,83,0.0,0.0,54,0.00,,,0.02,LWC V2.11 B50,2013-02-11 00:40:00,
2013-02-10 19:45:00,33.4,18.1,30.31,ESE,107,0.0,0.0,53,0.00,,,0.02,LWC V2.11 B50,2013-02-11 00:45:00,
2013-02-10 19:50:00,33.7,18.0,30.31,ESE,105,0.0,0.0,52,0.00,,,0.02,LWC V2.11 B50,2013-02-11 00:50:00,
2013-02-10 19:55:00,33.8,18.5,30.32,ESE,105,0.0,0.0,53,0.00,,,0.02,LWC V2.11 B50,2013-02-11 00:55:00,
2013-02-10 20:00:00,33.7,19.3,30.32,ESE,105,0.0,0.0,55,0.00,,,0.02,LWC V2.11 B50,2013-02-11 01:00:00,
2013-02-10 20:05:00,33.4,19.4,30.32,ESE,105,0.0,0.0,56,0.00,,,0.02,LWC V2.11 B50,2013-02-11 01:05:00,
2013-02-10 20:10:00,33.3,18.9,30.32,ESE,105,0.0,0.0,55,0.00,,,0.02,LWC V2.11 B50,2013-02-11 01:10:00,
2013-02-10 20:15:00,33.2,18.8,30.32,ESE,105,0.0,0.0,55,0.00,,,0.02,LWC V2.11 B50,2013-02-11 01:15:00,
2013-02-10 20:20:00,33.2,18.8,30.32,ESE,105,0.0,0.0,55,0.00,,,0.02,LWC V2.11 B50,2013-02-11 01:20:00,
2013-02-10 20:25:00,33.2,18.8,30.32,ESE,105,0.0,0.0,55,0.00,,,0.02,LWC V2.11 B50,2013-02-11 01:25:00,
2013-02-10 20:30:00,33.2,18.8,30.32,ESE,105,0.0,0.0,55,0.00,,,0.02,LWC V2.11 B50,2013-02-11 01:30:00,
2013-02-10 20:35:00,33.2,18.8,30.32,East,97,0.0,0.0,55,0.00,,,0.02,LWC V2.11 B50,2013-02-11 01:35:00,
2013-02-10 20:40:00,33.2,19.2,30.32,East,97,0.0,0.0,56,0.00,,,0.02,LWC V2.11 B50,2013-02-11 01:40:00,
2013-02-10 20:45:00,33.0,19.0,30.32,East,96,0.0,0.0,56,0.00,,,0.02,LWC V2.11 B50,2013-02-11 01:45:00,
2013-02-10 20:50:00,33.0,19.5,30.31,East,97,0.0,0.0,57,0.00,,,0.02,LWC V2.11 B50,2013-02-11 01:50:00,
2013-02-10 20:55:00,33.0,19.9,30.31,East,97,0.0,0.0,58,0.00,,,0.02,LWC V2.11 B50,2013-02-11 01:55:00,
2013-02-10 21:00:00,33.0,19.9,30.31,East,96,0.0,0.0,58,0.00,,,0.02,LWC V2.11 B50,2013-02-11 02:00:00,
2013-02-10 21:05:00,33.0,19.9,30.31,East,97,0.0,0.0,58,0.00,,,0.02,LWC V2.11 B50,2013-02-11 02:05:00,
2013-02-10 21:10:00,33.0,20.3,30.31,East,97,0.0,0.0,59,0.00,,,0.02,LWC V2.11 B50,2013-02-11 02:10:00,
2013-02-10 21:15:00,33.0,20.7,30.31,East,97,0.0,0.0,60,0.00,,,0.02,LWC V2.11 B50,2013-02-11 02:15:00,
2013-02-10 21:20:00,33.1,20.7,30.30,East,97,0.0,0.0,60,0.00,,,0.02,LWC V2.11 B50,2013-02-11 02:20:00,
2013-02-10 21:25:00,33.1,20.7,30.30,East,97,0.0,0.0,60,0.00,,,0.02,LWC V2.11 B50,2013-02-11 02:25:00,
2013-02-10 21:30:00,33.1,21.1,30.30,East,97,0.0,0.0,61,0.00,,,0.02,LWC V2.11 B50,2013-02-11 02:30:00,
2013-02-10 21:35:00,33.0,21.0,30.30,East,96,0.0,0.0,61,0.00,,,0.02,LWC V2.11 B50,2013-02-11 02:35:00,
2013-02-10 21:40:00,33.0,21.4,30.30,East,96,0.0,0.0,62,0.00,,,0.02,LWC V2.11 B50,2013-02-11 02:40:00,
2013-02-10 21:45:00,32.9,21.3,30.30,SSE,163,0.0,0.0,62,0.00,,,0.02,LWC V2.11 B50,2013-02-11 02:45:00,
2013-02-10 21:50:00,33.0,21.4,30.30,South,188,0.0,0.0,62,0.00,,,0.02,LWC V2.11 B50,2013-02-11 02:50:00,
2013-02-10 21:55:00,33.1,21.5,30.30,South,186,0.0,0.0,62,0.00,,,0.02,LWC V2.11 B50,2013-02-11 02:55:00,
2013-02-10 22:00:00,33.1,21.5,30.29,South,186,0.0,0.0,62,0.00,,,0.02,LWC V2.11 B50,2013-02-11 03:00:00,
2013-02-10 22:05:00,33.1,21.1,30.29,South,184,0.0,0.0,61,0.00,,,0.02,LWC V2.11 B50,2013-02-11 03:05:00,
2013-02-10 22:10:00,33.1,21.1,30.29,SSW,202,0.0,0.0,61,0.00,,,0.02,LWC V2.11 B50,2013-02-11 03:10:00,
2013-02-10 22:15:00,33.1,21.1,30.29,SSW,203,0.0,0.0,61,0.00,,,0.02,LWC V2.11 B50,2013-02-11 03:15:00,
2013-02-10 22:20:00,33.1,21.1,30.28,SSW,200,0.0,0.0,61,0.00,,,0.02,LWC V2.11 B50,2013-02-11 03:20:00,
2013-02-10 22:25:00,33.1,21.1,30.28,SSW,200,0.0,0.0,61,0.00,,,0.02,LWC V2.11 B50,2013-02-11 03:25:00,
2013-02-10 22:30:00,33.1,21.5,30.28,SSW,200,0.0,0.0,62,0.00,,,0.02,LWC V2.11 B50,2013-02-11 03:30:00,
2013-02-10 22:35:00,33.0,21.4,30.27,SSW,199,0.0,0.0,62,0.00,,,0.02,LWC V2.11 B50,2013-02-11 03:35:00,
2013-02-10 22:40:00,33.0,21.0,30.27,ESE,120,0.0,0.0,61,0.00,,,0.02,LWC V2.11 B50,2013-02-11 03:40:00,
2013-02-10 22:45:00,33.0,21.8,30.28,SW,224,0.0,0.0,63,0.00,,,0.02,LWC V2.11 B50,2013-02-11 03:45:00,
2013-02-10 22:50:00,32.9,21.7,30.27,SW,223,0.0,0.0,63,0.00,,,0.02,LWC V2.11 B50,2013-02-11 03:50:00,
2013-02-10 22:55:00,32.8,22.0,30.26,SW,223,0.0,0.0,64,0.00,,,0.02,LWC V2.11 B50,2013-02-11 03:55:00,
2013-02-10 23:00:00,32.8,22.0,30.27,SW,222,0.0,0.0,64,0.00,,,0.02,LWC V2.11 B50,2013-02-11 04:00:00,
2013-02-10 23:05:00,32.6,22.2,30.27,East,93,0.0,0.0,65,0.00,,,0.02,LWC V2.11 B50,2013-02-11 04:05:00,
2013-02-10 23:10:00,32.6,22.2,30.27,East,92,0.0,0.0,65,0.00,,,0.02,LWC V2.11 B50,2013-02-11 04:10:00,
2013-02-10 23:15:00,32.5,22.4,30.27,East,92,0.0,0.0,66,0.00,,,0.02,LWC V2.11 B50,2013-02-11 04:15:00,
2013-02-10 23:20:00,32.4,22.3,30.28,East,94,0.0,0.0,66,0.00,,,0.02,LWC V2.11 B50,2013-02-11 04:20:00,
2013-02-10 23:25:00,32.3,22.6,30.28,East,94,0.0,0.0,67,0.00,,,0.02,LWC V2.11 B50,2013-02-11 04:25:00,
2013-02-10 23:30:00,32.2,22.8,30.28,East,94,0.0,0.0,68,0.00,,,0.02,LWC V2.11 B50,2013-02-11 04:30:00,
2013-02-10 23:35:00,32.1,22.8,30.28,East,94,0.0,0.0,68,0.00,,,0.02,LWC V2.11 B50,2013-02-11 04:35:00,
2013-02-10 23:40:00,32.1,23.1,30.27,East,94,0.0,0.0,69,0.00,,,0.02,LWC V2.11 B50,2013-02-11 04:40:00,
2013-02-10 23:45:00,32.0,23.0,30.27,East,94,0.0,0.0,69,0.00,,,0.02,LWC V2.11 B50,2013-02-11 04:45:00,
2013-02-10 23:50:00,31.9,22.9,30.27,East,94,0.0,0.0,69,0.00,,,0.02,LWC V2.11 B50,2013-02-11 04:50:00,
2013-02-10 23:55:00,31.9,22.9,30.27,East,94,0.0,0.0,69,0.00,,,0.02,LWC V2.11 B50,2013-02-11 04:55:00,